createdAt,value
2022-12-11T00:01:20.807Z,58.60
2022-12-11T00:03:54.198Z,67.18
2022-12-11T00:06:22.743Z,56.97
2022-12-11T00:08:59.188Z,59.65
2022-12-11T00:11:26.209Z,60.85
2022-12-11T00:13:52.884Z,60.92
2022-12-11T00:18:56.321Z,57.50
2022-12-11T00:21:28.072Z,58.25
2022-12-11T00:23:56.135Z,60.78
2022-12-11T00:26:23.109Z,64.75
2022-12-11T00:28:58.476Z,58.42
2022-12-11T00:31:27.046Z,67.10
2022-12-11T00:33:58.890Z,67.55
2022-12-11T00:36:35.686Z,69.40
2022-12-11T00:39:14.186Z,62.35
2022-12-11T00:41:45.900Z,61.70
2022-12-11T00:44:14.009Z,70.55
2022-12-11T00:46:45.718Z,62.55
2022-12-11T00:49:12.432Z,67.15
2022-12-11T00:51:39.081Z,68.43
2022-12-11T00:54:11.896Z,66.05
2022-12-11T00:56:38.591Z,66.00
2022-12-11T00:59:07.119Z,68.72
2022-12-11T01:01:36.407Z,71.57
2022-12-11T01:04:03.640Z,73.55
2022-12-11T01:06:30.491Z,68.57
2022-12-11T01:09:16.499Z,73.78
2022-12-11T01:11:43.621Z,73.35
2022-12-11T01:14:11.508Z,69.47
2022-12-11T01:16:38.631Z,71.45
2022-12-11T01:19:05.390Z,64.20
2022-12-11T01:21:32.211Z,76.07
2022-12-11T01:23:58.997Z,73.93
2022-12-11T01:26:25.861Z,71.15
2022-12-11T01:28:52.870Z,68.47
2022-12-11T01:31:22.271Z,71.22
2022-12-11T01:33:50.077Z,79.03
2022-12-11T01:36:19.757Z,75.75
2022-12-11T01:38:48.544Z,91.63
2022-12-11T01:41:16.375Z,78.65
2022-12-11T01:44:00.105Z,86.35
2022-12-11T01:46:28.636Z,101.53
2022-12-11T01:48:55.973Z,106.57
2022-12-11T01:51:24.460Z,103.30
2022-12-11T01:53:59.575Z,109.65
2022-12-11T01:56:27.593Z,113.60
2022-12-11T01:58:57.450Z,98.00
2022-12-11T02:01:33.805Z,103.53
2022-12-11T02:04:01.636Z,114.93
2022-12-11T02:06:40.228Z,106.95
2022-12-11T02:09:12.252Z,100.82
2022-12-11T02:12:05.194Z,112.18
2022-12-11T02:14:49.980Z,106.43
2022-12-11T02:17:38.664Z,114.28
2022-12-11T02:20:23.702Z,109.25
2022-12-11T02:22:53.120Z,109.43
2022-12-11T02:25:28.227Z,105.72
2022-12-11T02:28:24.750Z,114.93
2022-12-11T02:31:02.774Z,113.07
2022-12-11T02:34:24.237Z,107.22
2022-12-11T02:36:59.394Z,116.95
2022-12-11T02:39:27.712Z,125.35
2022-12-11T02:41:56.543Z,108.03
2022-12-11T02:44:29.657Z,110.28
2022-12-11T02:46:58.531Z,108.70
2022-12-11T02:49:26.873Z,102.35
2022-12-11T02:51:56.629Z,101.40
2022-12-11T02:54:29.091Z,102.28
2022-12-11T02:57:13.978Z,98.40
2022-12-11T02:59:44.145Z,103.40
2022-12-11T03:02:13.948Z,104.30
2022-12-11T03:04:41.956Z,111.70
2022-12-11T03:07:13.678Z,99.78
2022-12-11T03:09:41.529Z,97.63
2022-12-11T03:12:15.426Z,109.28
2022-12-11T03:14:43.798Z,94.35
2022-12-11T03:17:27.936Z,111.90
2022-12-11T03:20:06.639Z,92.25
2022-12-11T03:22:57.360Z,97.97
2022-12-11T03:25:33.059Z,92.25
2022-12-11T03:28:12.735Z,104.15
2022-12-11T03:30:41.930Z,91.28
2022-12-11T03:33:13.756Z,103.30
2022-12-11T03:36:04.049Z,98.93
2022-12-11T03:38:38.969Z,98.13
2022-12-11T03:41:07.921Z,89.43
2022-12-11T03:43:35.499Z,102.75
2022-12-11T03:46:03.937Z,95.93
2022-12-11T03:48:38.230Z,97.60
2022-12-11T03:51:07.239Z,89.10
2022-12-11T03:53:36.287Z,82.97
2022-12-11T03:56:08.494Z,85.68
2022-12-11T03:58:35.421Z,88.50
2022-12-11T04:01:03.412Z,94.25
2022-12-11T04:03:30.130Z,93.80
2022-12-11T04:05:57.383Z,88.70
2022-12-11T04:08:24.285Z,91.03
2022-12-11T04:11:11.246Z,87.55
2022-12-11T04:13:40.315Z,88.32
2022-12-11T04:16:07.709Z,89.55
2022-12-11T04:18:54.841Z,86.50
2022-12-11T04:21:40.465Z,94.18
2022-12-11T04:24:17.708Z,93.80
2022-12-11T04:26:46.555Z,77.63
2022-12-11T04:29:14.342Z,84.88
2022-12-11T04:31:41.344Z,83.57
2022-12-11T04:34:09.527Z,86.35
2022-12-11T04:36:36.366Z,78.45
2022-12-11T04:39:04.446Z,73.25
2022-12-11T04:41:32.441Z,76.03
2022-12-11T04:44:01.585Z,78.10
2022-12-11T04:46:29.045Z,80.25
2022-12-11T04:48:57.849Z,77.75
2022-12-11T04:51:25.137Z,74.47
2022-12-11T04:53:52.192Z,74.50
2022-12-11T04:56:19.474Z,79.80
2022-12-11T04:58:47.199Z,76.82
2022-12-11T05:01:20.191Z,71.05
2022-12-11T05:03:48.135Z,73.35
2022-12-11T05:06:15.651Z,72.78
2022-12-11T05:08:43.856Z,79.75
2022-12-11T05:11:14.022Z,78.85
2022-12-11T05:13:41.499Z,77.35
2022-12-11T05:16:10.470Z,75.10
2022-12-11T05:18:37.422Z,77.20
2022-12-11T05:21:07.007Z,79.65
2022-12-11T05:23:34.452Z,80.97
2022-12-11T05:26:05.068Z,81.60
2022-12-11T05:28:35.107Z,79.65
2022-12-11T05:31:06.899Z,84.38
2022-12-11T05:33:34.310Z,77.65
2022-12-11T05:36:01.845Z,82.63
2022-12-11T05:38:28.696Z,85.50
2022-12-11T05:41:00.558Z,79.47
2022-12-11T05:43:28.674Z,66.35
2022-12-11T05:45:56.949Z,71.90
2022-12-11T05:48:24.318Z,65.00
2022-12-11T05:51:01.356Z,62.97
2022-12-11T05:53:28.794Z,60.45
2022-12-11T05:56:00.803Z,53.22
2022-12-11T05:58:28.231Z,49.53
2022-12-11T06:00:55.239Z,54.67
2022-12-11T06:03:22.546Z,57.58
2022-12-11T06:05:50.613Z,58.90
2022-12-11T06:08:17.950Z,56.20
2022-12-11T06:10:50.052Z,69.70
2022-12-11T06:13:18.435Z,65.40
2022-12-11T06:15:45.104Z,62.03
2022-12-11T06:18:12.097Z,72.68
2022-12-11T06:20:40.254Z,71.25
2022-12-11T06:23:07.010Z,70.57
2022-12-11T06:25:34.123Z,73.90
2022-12-11T06:28:00.976Z,75.07
2022-12-11T06:30:39.215Z,68.95
2022-12-11T06:33:07.599Z,66.40
2022-12-11T06:35:40.269Z,69.32
2022-12-11T06:38:09.250Z,69.63
2022-12-11T06:40:36.356Z,70.20
2022-12-11T06:43:03.794Z,72.68
2022-12-11T06:45:30.958Z,68.25
2022-12-11T06:47:58.625Z,60.47
2022-12-11T06:50:25.455Z,67.03
2022-12-11T06:52:52.243Z,64.80
2022-12-11T06:55:19.002Z,74.90
2022-12-11T06:57:45.771Z,69.25
2022-12-11T07:00:13.165Z,68.40
2022-12-11T07:02:40.084Z,69.47
2022-12-11T07:05:07.583Z,61.58
2022-12-11T07:07:34.559Z,61.22
2022-12-11T07:10:07.598Z,64.85
2022-12-11T07:12:36.309Z,64.15
2022-12-11T07:15:04.098Z,64.63
2022-12-11T07:17:31.067Z,59.55
2022-12-11T07:19:58.002Z,63.88
2022-12-11T07:22:24.771Z,70.35
2022-12-11T07:24:52.729Z,68.75
2022-12-11T07:27:19.464Z,67.60
2022-12-11T07:29:48.462Z,67.47
2022-12-11T07:32:15.686Z,71.22
2022-12-11T07:34:45.017Z,67.25
2022-12-11T07:37:15.615Z,67.82
2022-12-11T07:39:42.295Z,64.70
2022-12-11T07:42:09.112Z,69.10
2022-12-11T07:44:35.855Z,60.10
2022-12-11T07:47:02.645Z,66.45
2022-12-11T07:49:29.466Z,64.40
2022-12-11T07:51:56.385Z,110.05
2022-12-11T07:54:23.115Z,76.53
2022-12-11T07:56:53.442Z,67.47
2022-12-11T07:59:21.271Z,86.50
2022-12-11T08:01:48.170Z,70.63
2022-12-11T08:04:16.099Z,69.70
2022-12-11T08:06:44.018Z,75.90
2022-12-11T08:09:21.100Z,76.10
2022-12-11T08:11:51.833Z,65.28
2022-12-11T08:14:19.613Z,70.80
2022-12-11T08:16:47.268Z,72.93
2022-12-11T08:19:14.962Z,64.97
2022-12-11T08:21:43.507Z,76.13
2022-12-11T08:24:10.305Z,66.75
2022-12-11T08:26:37.081Z,80.20
2022-12-11T08:29:05.181Z,74.15
2022-12-11T08:31:31.933Z,81.28
2022-12-11T08:34:00.200Z,75.57
2022-12-11T08:36:28.215Z,79.97
2022-12-11T08:38:56.410Z,76.07
2022-12-11T08:41:28.959Z,82.13
2022-12-11T08:43:57.570Z,79.65
2022-12-11T08:46:26.557Z,74.90
2022-12-11T08:48:54.206Z,78.75
2022-12-11T08:51:23.756Z,72.95
2022-12-11T08:53:51.222Z,78.70
2022-12-11T08:56:20.803Z,78.82
2022-12-11T08:58:49.177Z,76.18
2022-12-11T09:01:21.840Z,76.80
2022-12-11T09:03:50.029Z,76.18
2022-12-11T09:06:19.806Z,80.00
2022-12-11T09:08:52.156Z,75.82
2022-12-11T09:11:22.856Z,75.93
2022-12-11T09:13:51.146Z,79.53
2022-12-11T09:16:20.133Z,82.30
2022-12-11T09:18:49.535Z,78.75
2022-12-11T09:21:19.026Z,82.10
2022-12-11T09:23:46.575Z,75.30
2022-12-11T09:26:15.428Z,81.88
2022-12-11T09:28:46.627Z,76.85
2022-12-11T09:31:20.175Z,76.15
2022-12-11T09:33:47.766Z,72.65
2022-12-11T09:36:14.442Z,75.25
2022-12-11T09:38:44.036Z,69.15
2022-12-11T09:41:40.562Z,63.55
2022-12-11T09:44:16.559Z,65.05
2022-12-11T09:46:44.257Z,67.45
2022-12-11T09:49:43.898Z,65.63
2022-12-11T09:52:33.711Z,60.35
2022-12-11T09:55:13.571Z,60.25
2022-12-11T09:58:00.753Z,58.13
2022-12-11T10:00:51.877Z,47.17
2022-12-11T10:03:18.571Z,40.63
2022-12-11T10:06:11.760Z,37.33
2022-12-11T10:09:03.100Z,31.40
2022-12-11T10:11:54.444Z,26.42
2022-12-11T10:14:29.871Z,27.63
2022-12-11T10:17:27.253Z,26.73
2022-12-11T10:19:57.445Z,27.10
2022-12-11T10:22:27.991Z,26.42
2022-12-11T10:25:13.881Z,26.70
2022-12-11T10:27:41.962Z,22.48
2022-12-11T10:30:18.032Z,24.52
2022-12-11T10:33:07.263Z,22.45
2022-12-11T10:35:49.631Z,24.42
2022-12-11T10:38:20.329Z,20.15
2022-12-11T10:40:55.136Z,19.98
2022-12-11T10:43:40.070Z,23.20
2022-12-11T10:46:14.767Z,21.90
2022-12-11T10:48:53.627Z,19.88
2022-12-11T10:51:30.601Z,21.48
2022-12-11T10:54:06.987Z,18.65
2022-12-11T10:56:37.665Z,21.50
2022-12-11T10:59:04.686Z,21.63
2022-12-11T11:01:33.753Z,23.95
2022-12-11T11:04:21.796Z,22.80
2022-12-11T11:06:49.837Z,20.83
2022-12-11T11:09:35.728Z,18.85
2022-12-11T11:12:08.196Z,19.73
2022-12-11T11:14:35.169Z,21.75
2022-12-11T11:17:02.397Z,20.95
2022-12-11T11:19:34.931Z,19.27
2022-12-11T11:22:14.242Z,19.77
2022-12-11T11:24:44.928Z,20.77
2022-12-11T11:27:33.198Z,17.83
2022-12-11T11:30:22.609Z,18.75
2022-12-11T11:32:54.473Z,21.65
2022-12-11T11:35:25.663Z,21.02
2022-12-11T11:38:13.920Z,21.58
2022-12-11T11:41:14.894Z,22.05
2022-12-11T11:43:50.909Z,25.17
2022-12-11T11:46:24.196Z,24.05
2022-12-11T11:48:58.382Z,42.45
2022-12-11T11:51:34.190Z,23.08
2022-12-11T11:54:04.151Z,28.67
2022-12-11T11:56:37.653Z,25.75
2022-12-11T11:59:18.635Z,28.45
2022-12-11T12:01:45.709Z,27.02
2022-12-11T12:04:12.493Z,26.95
2022-12-11T12:06:57.594Z,24.98
2022-12-11T12:09:49.662Z,30.38
2022-12-11T12:12:53.987Z,25.98
2022-12-11T12:15:38.725Z,30.80
2022-12-11T12:18:24.097Z,31.10
2022-12-11T12:21:02.813Z,35.80
2022-12-11T12:23:42.350Z,31.70
2022-12-11T12:26:37.395Z,31.17
2022-12-11T12:29:31.986Z,27.98
2022-12-11T12:32:29.129Z,28.38
2022-12-11T12:35:19.541Z,25.90
2022-12-11T12:38:15.403Z,25.80
2022-12-11T12:40:58.761Z,30.55
2022-12-11T12:43:57.288Z,22.85
2022-12-11T12:46:34.282Z,22.58
2022-12-11T12:49:02.778Z,28.60
2022-12-11T12:51:30.479Z,32.08
2022-12-11T12:54:00.227Z,30.30
2022-12-11T12:56:30.163Z,30.75
2022-12-11T12:58:57.159Z,32.25
2022-12-11T13:01:29.536Z,33.67
2022-12-11T13:03:58.163Z,33.55
2022-12-11T13:06:41.876Z,38.33
2022-12-11T13:09:20.413Z,34.22
2022-12-11T13:11:53.583Z,38.70
2022-12-11T13:14:21.157Z,34.60
2022-12-11T13:16:51.067Z,35.85
2022-12-11T13:19:25.766Z,35.53
2022-12-11T13:22:03.348Z,35.15
2022-12-11T13:24:33.487Z,33.47
2022-12-11T13:27:11.810Z,33.03
2022-12-11T13:29:41.793Z,28.88
2022-12-11T13:32:11.522Z,30.42
2022-12-11T13:34:41.029Z,26.98
2022-12-11T13:37:24.883Z,27.00
2022-12-11T13:39:51.946Z,28.50
2022-12-11T13:42:47.983Z,31.17
2022-12-11T13:45:51.839Z,29.27
2022-12-11T13:48:27.751Z,34.60
2022-12-11T13:50:56.655Z,32.35
2022-12-11T13:53:23.950Z,28.65
2022-12-11T13:55:58.342Z,31.83
2022-12-11T13:58:25.177Z,32.20
2022-12-11T14:01:20.677Z,40.00
2022-12-11T14:03:54.940Z,48.63
2022-12-11T14:06:22.917Z,49.13
2022-12-11T14:08:53.672Z,42.67
2022-12-11T14:11:40.483Z,44.83
2022-12-11T14:14:23.546Z,43.13
2022-12-11T14:16:53.461Z,40.83
2022-12-11T14:19:22.350Z,44.55
2022-12-11T14:22:01.143Z,44.15
2022-12-11T14:24:28.575Z,40.25
2022-12-11T14:26:55.623Z,39.90
2022-12-11T14:29:33.575Z,43.38
2022-12-11T14:32:04.859Z,41.25
2022-12-11T14:34:41.058Z,42.38
2022-12-11T14:37:08.296Z,48.80
2022-12-11T14:39:44.765Z,45.35
2022-12-11T14:42:18.251Z,45.63
2022-12-11T14:45:00.626Z,44.75
2022-12-11T14:47:41.288Z,48.00
2022-12-11T14:50:26.627Z,45.55
2022-12-11T14:53:00.230Z,43.35
2022-12-11T14:55:30.692Z,40.92
2022-12-11T14:58:01.913Z,45.80
2022-12-11T15:00:33.020Z,37.63
2022-12-11T15:03:05.451Z,39.20
2022-12-11T15:05:40.361Z,40.00
2022-12-11T15:08:10.708Z,40.90
2022-12-11T15:10:44.818Z,41.85
2022-12-11T15:15:45.629Z,37.08
2022-12-11T15:18:30.934Z,41.83
2022-12-11T15:21:09.393Z,34.63
2022-12-11T15:23:45.002Z,40.47
2022-12-11T15:26:12.028Z,43.35
2022-12-11T15:28:39.273Z,42.60
2022-12-11T15:31:22.192Z,43.20
2022-12-11T15:33:48.970Z,39.95
2022-12-11T15:36:36.208Z,45.10
2022-12-11T15:39:08.633Z,41.10
2022-12-11T15:41:35.735Z,46.38
2022-12-11T15:44:04.267Z,44.63
2022-12-11T15:46:36.254Z,44.42
2022-12-11T15:49:10.963Z,41.90
2022-12-11T15:51:42.668Z,43.55
2022-12-11T15:54:10.125Z,43.38
2022-12-11T15:56:36.861Z,44.05
2022-12-11T15:59:07.464Z,39.60
2022-12-11T16:01:35.035Z,45.83
2022-12-11T16:04:05.180Z,47.97
2022-12-11T16:06:33.178Z,48.65
2022-12-11T16:09:00.076Z,50.33
2022-12-11T16:11:27.009Z,45.90
2022-12-11T16:13:53.714Z,48.08
2022-12-11T16:16:20.503Z,46.15
2022-12-11T16:18:47.361Z,40.72
2022-12-11T16:21:18.320Z,44.60
2022-12-11T16:23:48.302Z,43.00
2022-12-11T16:26:16.263Z,40.65
2022-12-11T16:28:45.259Z,46.83
2022-12-11T16:31:13.908Z,44.20
2022-12-11T16:33:41.035Z,37.92
2022-12-11T16:36:18.738Z,43.38
2022-12-11T16:38:52.956Z,42.88
2022-12-11T16:41:20.479Z,39.65
2022-12-11T16:43:50.459Z,45.28
2022-12-11T16:46:21.749Z,36.83
2022-12-11T16:48:48.733Z,40.35
2022-12-11T16:51:15.901Z,36.33
2022-12-11T16:53:42.797Z,39.35
2022-12-11T16:56:09.772Z,39.70
2022-12-11T16:58:36.639Z,39.30
2022-12-11T17:01:15.191Z,36.08
2022-12-11T17:03:43.195Z,39.63
2022-12-11T17:06:12.661Z,35.15
2022-12-11T17:08:40.549Z,38.10
2022-12-11T17:11:09.975Z,39.03
2022-12-11T17:13:37.215Z,30.63
2022-12-11T17:16:10.745Z,36.47
2022-12-11T17:18:41.816Z,33.92
2022-12-11T17:21:14.961Z,39.40
2022-12-11T17:23:44.382Z,35.67
2022-12-11T17:26:11.561Z,32.97
2022-12-11T17:28:39.294Z,38.70
2022-12-11T17:31:11.102Z,33.40
2022-12-11T17:33:38.416Z,33.75
2022-12-11T17:36:06.912Z,35.53
2022-12-11T17:38:34.598Z,35.45
2022-12-11T17:41:06.173Z,33.10
2022-12-11T17:43:33.039Z,34.97
2022-12-11T17:45:59.808Z,34.72
2022-12-11T17:48:28.071Z,34.70
2022-12-11T17:50:54.822Z,33.22
2022-12-11T17:53:22.895Z,33.90
2022-12-11T17:55:52.287Z,33.00
2022-12-11T17:58:23.027Z,34.63
2022-12-11T18:00:52.734Z,35.42
2022-12-11T18:03:19.622Z,36.30
2022-12-11T18:05:48.893Z,31.17
2022-12-11T18:08:17.880Z,36.53
2022-12-11T18:10:45.901Z,33.53
2022-12-11T18:13:13.020Z,33.88
2022-12-11T18:15:41.069Z,32.03
2022-12-11T18:18:08.740Z,34.65
2022-12-11T18:20:37.394Z,30.15
2022-12-11T18:23:05.738Z,34.33
2022-12-11T18:25:32.684Z,30.27
2022-12-11T18:28:00.232Z,30.20
2022-12-11T18:30:28.095Z,34.60
2022-12-11T18:32:55.039Z,33.15
2022-12-11T18:35:21.801Z,35.88
2022-12-11T18:37:48.630Z,30.77
2022-12-11T18:40:16.971Z,31.13
2022-12-11T18:42:43.855Z,30.40
2022-12-11T18:45:11.102Z,27.58
2022-12-11T18:47:38.060Z,67.30
2022-12-11T18:50:08.367Z,28.15
2022-12-11T18:52:35.523Z,29.15
2022-12-11T18:55:02.386Z,30.08
2022-12-11T18:57:29.493Z,26.27
2022-12-11T18:59:56.299Z,26.90
2022-12-11T19:02:23.170Z,27.75
2022-12-11T19:04:52.176Z,30.13
2022-12-11T19:07:18.942Z,33.45
2022-12-11T19:09:48.455Z,28.88
2022-12-11T19:12:16.399Z,35.28
2022-12-11T19:14:43.039Z,31.60
2022-12-11T19:17:09.752Z,31.58
2022-12-11T19:19:36.606Z,30.83
2022-12-11T19:22:03.812Z,35.40
2022-12-11T19:24:31.016Z,34.38
2022-12-11T19:26:58.186Z,32.65
2022-12-11T19:29:36.479Z,35.38
2022-12-11T19:32:04.737Z,39.20
2022-12-11T19:34:34.954Z,38.83
2022-12-11T19:37:01.734Z,43.55
2022-12-11T19:39:31.358Z,42.78
2022-12-11T19:41:58.597Z,37.53
2022-12-11T19:44:25.409Z,36.65
2022-12-11T19:46:52.118Z,37.00
2022-12-11T19:49:18.885Z,34.63
2022-12-11T19:51:45.940Z,34.53
2022-12-11T19:54:15.382Z,35.53
2022-12-11T19:56:42.614Z,35.08
2022-12-11T19:59:12.031Z,32.80
2022-12-11T20:01:40.206Z,36.95
2022-12-11T20:04:12.658Z,39.08
2022-12-11T20:06:42.968Z,34.63
2022-12-11T20:09:13.137Z,34.78
2022-12-11T20:11:42.332Z,32.40
2022-12-11T20:14:11.554Z,32.97
2022-12-11T20:17:09.458Z,35.75
2022-12-11T20:19:26.707Z,34.13
2022-12-11T20:21:55.968Z,34.25
2022-12-11T20:24:22.774Z,34.25
2022-12-11T20:26:50.234Z,33.50
2022-12-11T20:29:17.101Z,36.17
2022-12-11T20:31:45.590Z,33.33
2022-12-11T20:34:13.202Z,31.02
2022-12-11T20:36:39.954Z,32.17
2022-12-11T20:39:06.678Z,36.72
2022-12-11T20:41:33.697Z,26.23
2022-12-11T20:44:00.454Z,29.77
2022-12-11T20:46:27.702Z,31.58
2022-12-11T20:48:58.539Z,30.73
2022-12-11T20:51:26.581Z,28.73
2022-12-11T20:53:59.719Z,27.80
2022-12-11T20:56:29.643Z,26.67
2022-12-11T20:58:57.478Z,28.52
2022-12-11T21:01:27.762Z,29.70
2022-12-11T21:03:54.575Z,27.15
2022-12-11T21:06:33.315Z,27.05
2022-12-11T21:09:07.244Z,25.73
2022-12-11T21:11:34.398Z,26.40
2022-12-11T21:14:01.263Z,27.88
2022-12-11T21:16:34.143Z,29.02
2022-12-11T21:19:01.655Z,26.00
2022-12-11T21:21:31.181Z,34.13
2022-12-11T21:23:58.271Z,28.95
2022-12-11T21:26:25.129Z,32.15
2022-12-11T21:28:52.494Z,31.23
2022-12-11T21:31:21.356Z,30.83
2022-12-11T21:33:48.766Z,41.83
2022-12-11T21:36:16.410Z,34.33
2022-12-11T21:38:45.293Z,36.45
2022-12-11T21:41:15.660Z,34.85
2022-12-11T21:44:32.925Z,33.55
2022-12-11T21:46:30.872Z,29.40
2022-12-11T21:48:57.714Z,29.25
2022-12-11T21:51:29.659Z,29.58
2022-12-11T21:54:00.783Z,29.40
2022-12-11T21:56:30.560Z,30.80
2022-12-11T21:58:57.831Z,27.98
2022-12-11T22:01:31.424Z,31.30
2022-12-11T22:03:59.947Z,29.63
2022-12-11T22:06:26.860Z,25.30
2022-12-11T22:08:53.630Z,31.55
2022-12-11T22:11:24.546Z,28.48
2022-12-11T22:13:51.453Z,27.52
2022-12-11T22:16:18.696Z,24.45
2022-12-11T22:18:46.254Z,27.75
2022-12-11T22:21:13.065Z,23.95
2022-12-11T22:23:40.705Z,23.65
2022-12-11T22:26:09.346Z,26.63
2022-12-11T22:28:36.126Z,22.88
2022-12-11T22:31:03.105Z,25.90
2022-12-11T22:33:31.138Z,25.25
2022-12-11T22:35:59.142Z,26.83
2022-12-11T22:38:26.425Z,22.75
2022-12-11T22:40:53.905Z,21.48
2022-12-11T22:43:21.022Z,23.95
2022-12-11T22:45:48.044Z,24.88
2022-12-11T22:48:15.242Z,23.02
2022-12-11T22:50:42.915Z,23.13
2022-12-11T22:53:10.953Z,23.35
2022-12-11T22:55:40.036Z,24.75
2022-12-11T22:58:07.390Z,22.25
2022-12-11T23:00:37.443Z,24.10
2022-12-11T23:03:04.356Z,23.80
2022-12-11T23:05:31.212Z,19.17
2022-12-11T23:07:58.244Z,24.15
2022-12-11T23:10:25.239Z,21.52
2022-12-11T23:12:52.009Z,22.00
2022-12-11T23:15:19.822Z,22.23
2022-12-11T23:17:46.494Z,23.60
2022-12-11T23:20:14.102Z,22.88
2022-12-11T23:22:41.497Z,22.80
2022-12-11T23:25:13.390Z,23.02
2022-12-11T23:27:40.765Z,23.88
2022-12-11T23:30:07.967Z,22.13
2022-12-11T23:32:34.692Z,23.83
2022-12-11T23:35:01.596Z,22.55
2022-12-11T23:37:28.286Z,21.85
2022-12-11T23:39:56.612Z,21.05
2022-12-11T23:42:23.470Z,21.25
2022-12-11T23:44:50.228Z,22.70
2022-12-11T23:47:18.015Z,21.58
2022-12-11T23:49:45.763Z,20.77
2022-12-11T23:52:12.577Z,21.77
2022-12-11T23:54:40.465Z,17.92
2022-12-11T23:57:07.309Z,22.50
2022-12-11T23:59:33.987Z,20.38
